Time,TemperatureF,DewpointF,PressureIn,WindDirection,WindDirectionDegrees,WindSpeedMPH,WindSpeedGustMPH,Humidity,HourlyPrecipIn,Conditions,Clouds,dailyrainin,SoftwareType,DateUTC
2013-02-13 00:05:00,35.1,33.5,29.99,ESE,110,0.0,14.0,94,0.00,,,0.00,Wunderground v.1.15,2013-02-13 06:05:00,
2013-02-13 00:10:00,35.1,33.5,29.98,ESE,113,0.0,14.0,94,0.00,,,0.00,Wunderground v.1.15,2013-02-13 06:10:00,
2013-02-13 00:20:00,35.0,33.4,29.98,ESE,114,0.0,14.0,94,0.00,,,0.00,Wunderground v.1.15,2013-02-13 06:20:00,
2013-02-13 00:29:00,35.0,33.7,29.98,ESE,117,0.0,14.0,95,0.00,,,0.00,Wunderground v.1.15,2013-02-13 06:29:00,
2013-02-13 00:40:00,34.9,33.6,29.98,SE,139,1.0,1.0,95,0.00,,,0.00,Wunderground v.1.15,2013-02-13 06:40:00,
2013-02-13 00:50:00,34.9,33.6,29.97,SE,131,0.0,14.0,95,0.00,,,0.00,Wunderground v.1.15,2013-02-13 06:50:00,
2013-02-13 01:00:00,34.9,33.6,29.97,SE,124,0.0,14.0,95,0.00,,,0.00,Wunderground v.1.15,2013-02-13 07:00:00,
2013-02-13 01:09:00,35.0,33.7,29.97,ESE,113,0.0,14.0,95,0.00,,,0.00,Wunderground v.1.15,2013-02-13 07:09:00,
2013-02-13 01:20:00,34.9,33.6,29.97,ESE,113,0.0,14.0,95,0.00,,,0.00,Wunderground v.1.15,2013-02-13 07:20:00,
2013-02-13 01:30:00,34.9,33.6,29.97,ESE,122,0.0,14.0,95,0.00,,,0.00,Wunderground v.1.15,2013-02-13 07:30:00,
2013-02-13 01:40:00,34.9,33.3,29.97,ESE,113,0.0,14.0,94,0.00,,,0.01,Wunderground v.1.15,2013-02-13 07:40:00,
2013-02-13 01:49:00,34.7,33.2,29.97,ESE,117,0.0,14.0,94,0.00,,,0.01,Wunderground v.1.15,2013-02-13 07:49:00,
2013-02-13 01:55:00,34.7,33.2,29.97,ESE,115,0.0,14.0,94,0.00,,,0.01,Wunderground v.1.15,2013-02-13 07:55:00,
2013-02-13 02:05:00,34.5,33.0,29.97,SSE,148,0.0,14.0,94,0.00,,,0.01,Wunderground v.1.15,2013-02-13 08:05:00,
2013-02-13 02:15:00,34.5,33.2,29.96,WSW,240,0.0,14.0,95,0.00,,,0.02,Wunderground v.1.15,2013-02-13 08:15:00,
2013-02-13 02:24:00,34.3,32.8,29.96,SE,127,0.0,14.0,94,0.00,,,0.02,Wunderground v.1.15,2013-02-13 08:24:00,
2013-02-13 02:30:00,34.1,32.6,29.96,ESE,118,0.0,14.0,94,0.00,,,0.02,Wunderground v.1.15,2013-02-13 08:30:00,
2013-02-13 02:40:00,33.8,32.3,29.96,WSW,238,0.0,14.0,94,0.00,,,0.02,Wunderground v.1.15,2013-02-13 08:40:00,
2013-02-13 02:45:00,33.6,32.1,29.96,SE,146,0.0,14.0,94,0.00,,,0.03,Wunderground v.1.15,2013-02-13 08:45:00,
2013-02-13 02:55:00,33.4,31.9,29.95,SSW,194,0.0,14.0,94,0.00,,,0.03,Wunderground v.1.15,2013-02-13 08:55:00,
2013-02-13 03:04:00,33.3,32.0,29.95,ESE,111,0.0,14.0,95,0.00,,,0.03,Wunderground v.1.15,2013-02-13 09:04:00,
2013-02-13 03:15:00,33.3,32.0,29.94,SSW,203,0.0,14.0,95,0.00,,,0.04,Wunderground v.1.15,2013-02-13 09:15:00,
2013-02-13 03:25:00,33.2,31.9,29.94,SSE,152,0.0,14.0,95,0.00,,,0.04,Wunderground v.1.15,2013-02-13 09:25:00,
2013-02-13 03:35:00,33.2,31.9,29.93,ESE,115,0.0,14.0,95,0.00,,,0.04,Wunderground v.1.15,2013-02-13 09:35:00,
2013-02-13 03:44:00,33.2,31.9,29.93,ESE,113,0.0,14.0,95,0.00,,,0.04,Wunderground v.1.15,2013-02-13 09:44:00,
2013-02-13 03:54:00,33.1,31.8,29.92,East,100,0.0,14.0,95,0.00,,,0.04,Wunderground v.1.15,2013-02-13 09:54:00,
2013-02-13 04:00:00,33.1,31.8,29.92,ESE,106,0.0,14.0,95,0.00,,,0.04,Wunderground v.1.15,2013-02-13 10:00:00,
2013-02-13 04:10:00,33.0,31.7,29.92,ESE,115,0.0,14.0,95,0.00,,,0.04,Wunderground v.1.15,2013-02-13 10:10:00,
2013-02-13 04:20:00,32.9,31.6,29.92,ESE,117,0.0,14.0,95,0.00,,,0.04,Wunderground v.1.15,2013-02-13 10:20:00,
2013-02-13 04:30:00,32.8,31.8,29.91,ESE,110,0.0,14.0,96,0.00,,,0.04,Wunderground v.1.15,2013-02-13 10:30:00,
2013-02-13 04:40:00,32.6,31.3,29.91,ESE,110,0.0,14.0,95,0.00,,,0.04,Wunderground v.1.15,2013-02-13 10:40:00,
2013-02-13 04:50:00,32.5,31.5,29.92,ESE,122,0.0,14.0,96,0.00,,,0.04,Wunderground v.1.15,2013-02-13 10:50:00,
2013-02-13 04:59:00,32.3,31.3,29.93,South,172,0.0,14.0,96,0.00,,,0.04,Wunderground v.1.15,2013-02-13 10:59:00,
2013-02-13 05:10:00,32.4,31.4,29.92,ESE,119,0.0,14.0,96,0.00,,,0.04,Wunderground v.1.15,2013-02-13 11:10:00,
2013-02-13 05:20:00,32.4,31.4,29.93,ESE,114,0.0,14.0,96,0.00,,,0.04,Wunderground v.1.15,2013-02-13 11:20:00,
2013-02-13 05:30:00,32.3,31.3,29.93,ESE,108,0.0,14.0,96,0.00,,,0.04,Wunderground v.1.15,2013-02-13 11:30:00,
2013-02-13 05:39:00,32.1,31.1,29.92,ESE,105,0.0,14.0,96,0.00,,,0.04,Wunderground v.1.15,2013-02-13 11:39:00,
2013-02-13 05:50:00,31.7,30.7,29.92,SE,128,0.0,14.0,96,0.00,,,0.04,Wunderground v.1.15,2013-02-13 11:50:00,
2013-02-13 06:00:00,31.7,30.7,29.92,SSE,151,0.0,14.0,96,0.00,,,0.04,Wunderground v.1.15,2013-02-13 12:00:00,
2013-02-13 06:10:00,31.7,30.7,29.93,ESE,110,0.0,14.0,96,0.00,,,0.04,Wunderground v.1.15,2013-02-13 12:10:00,
2013-02-13 06:19:00,31.7,30.7,29.93,SSE,156,0.0,14.0,96,0.00,,,0.04,Wunderground v.1.15,2013-02-13 12:19:00,
2013-02-13 06:30:00,31.5,30.5,29.93,SE,127,0.0,14.0,96,0.00,,,0.04,Wunderground v.1.15,2013-02-13 12:30:00,
2013-02-13 06:40:00,31.4,30.4,29.93,ESE,113,0.0,14.0,96,0.00,,,0.04,Wunderground v.1.15,2013-02-13 12:40:00,
2013-02-13 06:50:00,31.2,30.2,29.94,ESE,122,0.0,14.0,96,0.00,,,0.04,Wunderground v.1.15,2013-02-13 12:50:00,
2013-02-13 07:00:00,31.3,30.5,29.93,East,95,1.0,1.0,97,0.00,,,0.04,Wunderground v.1.15,2013-02-13 13:00:00,
2013-02-13 07:10:00,31.2,30.2,29.94,ESE,119,0.0,14.0,96,0.00,,,0.04,Wunderground v.1.15,2013-02-13 13:10:00,
2013-02-13 07:20:00,31.2,30.2,29.94,ESE,118,0.0,14.0,96,0.00,,,0.04,Wunderground v.1.15,2013-02-13 13:20:00,
2013-02-13 07:29:00,31.2,30.2,29.94,East,79,0.0,14.0,96,0.00,,,0.04,Wunderground v.1.15,2013-02-13 13:29:00,
2013-02-13 07:39:00,31.8,31.0,29.94,ESE,105,1.0,14.0,97,0.00,,,0.04,Wunderground v.1.15,2013-02-13 13:39:00,
2013-02-13 07:44:00,32.0,31.0,29.94,ESE,117,1.0,14.0,96,0.00,,,0.04,Wunderground v.1.15,2013-02-13 13:44:00,
2013-02-13 07:50:00,32.4,31.4,29.94,SE,134,0.0,14.0,96,0.00,,,0.04,Wunderground v.1.15,2013-02-13 13:50:00,
2013-02-13 08:00:00,33.6,32.6,29.94,East,82,1.0,14.0,96,0.00,,,0.04,Wunderground v.1.15,2013-02-13 14:00:00,
2013-02-13 08:10:00,34.3,33.0,29.94,East,100,1.0,14.0,95,0.00,,,0.04,Wunderground v.1.15,2013-02-13 14:10:00,
2013-02-13 08:19:00,34.6,33.1,29.94,ESE,111,2.0,2.0,94,0.00,,,0.04,Wunderground v.1.15,2013-02-13 14:19:00,
2013-02-13 08:30:00,35.2,33.4,29.93,ESE,105,2.0,14.0,93,0.00,,,0.04,Wunderground v.1.15,2013-02-13 14:30:00,
2013-02-13 08:40:00,35.7,33.6,29.93,SE,127,3.0,14.0,92,0.00,,,0.04,Wunderground v.1.15,2013-02-13 14:40:00,
2013-02-13 08:50:00,36.0,33.6,29.93,ESE,121,3.0,3.0,91,0.00,,,0.04,Wunderground v.1.15,2013-02-13 14:50:00,
2013-02-13 08:59:00,36.7,34.3,29.94,SSW,192,2.0,2.0,91,0.00,,,0.04,Wunderground v.1.15,2013-02-13 14:59:00,
2013-02-13 09:05:00,37.0,34.3,29.93,ESE,103,2.0,4.0,90,0.00,,,0.04,Wunderground v.1.15,2013-02-13 15:05:00,
2013-02-13 09:15:00,37.0,34.3,29.93,East,99,3.0,14.0,90,0.00,,,0.04,Wunderground v.1.15,2013-02-13 15:15:00,
2013-02-13 09:25:00,37.4,34.5,29.93,ESE,115,3.0,14.0,89,0.00,,,0.04,Wunderground v.1.15,2013-02-13 15:25:00,
2013-02-13 09:34:00,38.0,35.6,29.93,ESE,120,3.0,14.0,91,0.00,,,0.05,Wunderground v.1.15,2013-02-13 15:34:00,
2013-02-13 09:40:00,38.2,35.0,29.93,ESE,122,3.0,14.0,88,0.00,,,0.05,Wunderground v.1.15,2013-02-13 15:40:00,
2013-02-13 09:50:00,38.2,35.0,29.93,ESE,103,4.0,4.0,88,0.00,,,0.05,Wunderground v.1.15,2013-02-13 15:50:00,
2013-02-13 10:00:00,39.0,35.7,29.93,South,181,2.0,2.0,88,0.00,,,0.05,Wunderground v.1.15,2013-02-13 16:00:00,
2013-02-13 10:09:00,39.0,35.5,29.94,SSE,167,2.0,14.0,87,0.00,,,0.05,Wunderground v.1.15,2013-02-13 16:09:00,
2013-02-13 10:20:00,39.1,35.6,29.94,ESE,109,3.0,3.0,87,0.00,,,0.05,Wunderground v.1.15,2013-02-13 16:20:00,
2013-02-13 10:30:00,38.9,35.1,29.94,SE,145,3.0,3.0,86,0.00,,,0.05,Wunderground v.1.15,2013-02-13 16:30:00,
2013-02-13 10:40:00,38.7,35.2,29.94,SSE,150,3.0,14.0,87,0.00,,,0.05,Wunderground v.1.15,2013-02-13 16:40:00,
2013-02-13 10:49:00,39.0,35.5,29.94,ESE,122,3.0,3.0,87,0.00,,,0.05,Wunderground v.1.15,2013-02-13 16:49:00,
2013-02-13 11:00:00,39.2,35.4,29.95,SE,136,4.0,4.0,86,0.00,,,0.05,Wunderground v.1.15,2013-02-13 17:00:00,
2013-02-13 11:10:00,40.1,35.7,29.95,WSW,240,3.0,3.0,84,0.00,,,0.05,Wunderground v.1.15,2013-02-13 17:10:00,
2013-02-13 11:20:00,40.4,35.6,29.94,SE,132,4.0,14.0,83,0.00,,,0.05,Wunderground v.1.15,2013-02-13 17:20:00,
2013-02-13 11:29:00,40.2,34.5,29.94,SSE,166,6.0,6.0,80,0.00,,,0.05,Wunderground v.1.15,2013-02-13 17:29:00,
2013-02-13 11:35:00,40.7,35.3,29.94,SE,127,5.0,14.0,81,0.00,,,0.05,Wunderground v.1.15,2013-02-13 17:35:00,
2013-02-13 11:40:00,40.6,35.2,29.95,East,94,4.0,4.0,81,0.00,,,0.05,Wunderground v.1.15,2013-02-13 17:40:00,
2013-02-13 11:50:00,41.7,36.0,29.94,ESE,107,3.0,14.0,80,0.00,,,0.05,Wunderground v.1.15,2013-02-13 17:50:00,
2013-02-13 11:55:00,41.1,35.1,29.94,ESE,122,4.0,14.0,79,0.00,,,0.05,Wunderground v.1.15,2013-02-13 17:55:00,
2013-02-13 12:00:00,41.2,35.2,29.94,ESE,116,5.0,14.0,79,0.00,,,0.05,Wunderground v.1.15,2013-02-13 18:00:00,
2013-02-13 12:09:00,41.6,35.2,29.94,South,177,4.0,4.0,78,0.00,,,0.05,Wunderground v.1.15,2013-02-13 18:09:00,
2013-02-13 12:20:00,41.4,34.7,29.94,SW,215,4.0,4.0,77,0.00,,,0.05,Wunderground v.1.15,2013-02-13 18:20:00,
2013-02-13 12:30:00,42.5,36.1,29.94,East,96,2.0,14.0,78,0.00,,,0.05,Wunderground v.1.15,2013-02-13 18:30:00,
2013-02-13 12:40:00,42.3,34.6,29.93,SE,129,4.0,4.0,74,0.00,,,0.05,Wunderground v.1.15,2013-02-13 18:40:00,
2013-02-13 12:45:00,42.6,34.9,29.93,ESE,120,5.0,5.0,74,0.00,,,0.05,Wunderground v.1.15,2013-02-13 18:45:00,
2013-02-13 12:54:00,42.8,35.1,29.92,SW,219,4.0,14.0,74,0.00,,,0.05,Wunderground v.1.15,2013-02-13 18:54:00,
2013-02-13 13:05:00,42.5,34.5,29.92,South,184,5.0,14.0,73,0.00,,,0.05,Wunderground v.1.15,2013-02-13 19:05:00,
2013-02-13 13:15:00,42.7,35.0,29.91,East,95,5.0,14.0,74,0.00,,,0.05,Wunderground v.1.15,2013-02-13 19:15:00,
2013-02-13 13:20:00,42.9,35.2,29.91,ESE,110,4.0,14.0,74,0.00,,,0.05,Wunderground v.1.15,2013-02-13 19:20:00,
2013-02-13 13:30:00,43.5,35.4,29.90,SE,141,4.0,4.0,73,0.00,,,0.05,Wunderground v.1.15,2013-02-13 19:30:00,
2013-02-13 13:39:00,43.5,35.8,29.90,ESE,120,4.0,14.0,74,0.00,,,0.05,Wunderground v.1.15,2013-02-13 19:39:00,
2013-02-13 13:45:00,44.2,36.1,29.90,SSW,200,3.0,14.0,73,0.00,,,0.05,Wunderground v.1.15,2013-02-13 19:45:00,
2013-02-13 13:55:00,44.5,36.0,29.91,SSE,151,4.0,4.0,72,0.00,,,0.05,Wunderground v.1.15,2013-02-13 19:55:00,
2013-02-13 14:05:00,44.7,35.5,29.91,ESE,115,4.0,14.0,70,0.00,,,0.05,Wunderground v.1.15,2013-02-13 20:05:00,
2013-02-13 14:14:00,45.0,36.5,29.91,ESE,113,3.0,14.0,72,0.00,,,0.05,Wunderground v.1.15,2013-02-13 20:14:00,
2013-02-13 14:25:00,45.8,36.6,29.91,SE,131,3.0,14.0,70,0.00,,,0.05,Wunderground v.1.15,2013-02-13 20:25:00,
2013-02-13 14:35:00,45.6,36.0,29.90,SSE,155,4.0,14.0,69,0.00,,,0.05,Wunderground v.1.15,2013-02-13 20:35:00,
2013-02-13 14:45:00,45.9,36.7,29.90,East,86,4.0,14.0,70,0.00,,,0.05,Wunderground v.1.15,2013-02-13 20:45:00,
2013-02-13 14:50:00,46.7,37.1,29.90,WNW,294,3.0,14.0,69,0.00,,,0.05,Wunderground v.1.15,2013-02-13 20:50:00,
2013-02-13 14:54:00,45.9,35.9,29.90,South,183,4.0,14.0,68,0.00,,,0.05,Wunderground v.1.15,2013-02-13 20:54:00,
2013-02-13 15:04:00,46.1,36.1,29.90,ESE,113,4.0,14.0,68,0.00,,,0.05,Wunderground v.1.15,2013-02-13 21:04:00,
2013-02-13 15:10:00,46.0,35.7,29.89,ESE,112,5.0,5.0,67,0.00,,,0.05,Wunderground v.1.15,2013-02-13 21:10:00,
2013-02-13 15:15:00,46.2,36.2,29.89,ESE,107,4.0,7.0,68,0.00,,,0.05,Wunderground v.1.15,2013-02-13 21:15:00,
2013-02-13 15:25:00,46.5,36.1,29.89,East,84,4.0,14.0,67,0.00,,,0.05,Wunderground v.1.15,2013-02-13 21:25:00,
2013-02-13 15:35:00,46.9,35.7,29.89,ESE,116,4.0,14.0,65,0.00,,,0.05,Wunderground v.1.15,2013-02-13 21:35:00,
2013-02-13 15:45:00,47.1,35.9,29.89,ESE,104,3.0,14.0,65,0.00,,,0.05,Wunderground v.1.15,2013-02-13 21:45:00,
2013-02-13 15:55:00,47.2,35.6,29.89,ESE,107,3.0,14.0,64,0.00,,,0.05,Wunderground v.1.15,2013-02-13 21:55:00,
2013-02-13 16:05:00,46.3,35.9,29.89,East,98,4.0,14.0,67,0.00,,,0.05,Wunderground v.1.15,2013-02-13 22:05:00,
2013-02-13 16:14:00,46.2,35.8,29.89,SSE,163,3.0,14.0,67,0.00,,,0.05,Wunderground v.1.15,2013-02-13 22:14:00,
2013-02-13 16:25:00,45.6,36.0,29.89,ESE,115,3.0,14.0,69,0.00,,,0.05,Wunderground v.1.15,2013-02-13 22:25:00,
2013-02-13 16:35:00,45.3,36.1,29.89,ESE,115,2.0,14.0,70,0.00,,,0.05,Wunderground v.1.15,2013-02-13 22:35:00,
2013-02-13 16:45:00,45.2,36.0,29.88,SE,134,3.0,3.0,70,0.00,,,0.05,Wunderground v.1.15,2013-02-13 22:45:00,
2013-02-13 16:54:00,45.0,36.2,29.88,SE,127,2.0,14.0,71,0.00,,,0.05,Wunderground v.1.15,2013-02-13 22:54:00,
2013-02-13 17:05:00,44.6,35.8,29.88,ESE,103,3.0,5.0,71,0.00,,,0.05,Wunderground v.1.15,2013-02-13 23:05:00,
2013-02-13 17:15:00,44.1,35.6,29.88,ESE,113,3.0,14.0,72,0.00,,,0.05,Wunderground v.1.15,2013-02-13 23:15:00,
2013-02-13 17:25:00,43.9,35.8,29.88,ESE,113,2.0,14.0,73,0.00,,,0.05,Wunderground v.1.15,2013-02-13 23:25:00,
2013-02-13 17:34:00,43.5,35.8,29.88,ESE,114,2.0,14.0,74,0.00,,,0.05,Wunderground v.1.15,2013-02-13 23:34:00,
2013-02-13 17:45:00,43.2,35.5,29.88,SE,127,2.0,14.0,74,0.00,,,0.05,Wunderground v.1.15,2013-02-13 23:45:00,
2013-02-13 17:50:00,43.0,35.6,29.88,East,101,2.0,2.0,75,0.00,,,0.05,Wunderground v.1.15,2013-02-13 23:50:00,
2013-02-13 18:00:00,42.4,35.7,29.88,SE,146,2.0,14.0,77,0.00,,,0.05,Wunderground v.1.15,2013-02-14 00:00:00,
2013-02-13 18:10:00,42.0,35.6,29.88,SSE,160,2.0,2.0,78,0.00,,,0.05,Wunderground v.1.15,2013-02-14 00:10:00,
2013-02-13 18:19:00,41.9,35.5,29.88,SE,134,3.0,3.0,78,0.00,,,0.05,Wunderground v.1.15,2013-02-14 00:19:00,
2013-02-13 18:25:00,41.7,35.3,29.88,ESE,107,2.0,14.0,78,0.00,,,0.05,Wunderground v.1.15,2013-02-14 00:25:00,
2013-02-13 18:35:00,41.2,35.2,29.88,ESE,108,1.0,14.0,79,0.00,,,0.05,Wunderground v.1.15,2013-02-14 00:35:00,
2013-02-13 18:45:00,40.7,35.0,29.88,SE,128,1.0,14.0,80,0.00,,,0.05,Wunderground v.1.15,2013-02-14 00:45:00,
2013-02-13 18:54:00,40.2,34.5,29.89,SE,145,0.0,14.0,80,0.00,,,0.05,Wunderground v.1.15,2013-02-14 00:54:00,
2013-02-13 19:05:00,39.8,34.8,29.88,ESE,114,0.0,14.0,82,0.00,,,0.05,Wunderground v.1.15,2013-02-14 01:05:00,
2013-02-13 19:15:00,39.3,34.0,29.88,ESE,115,0.0,14.0,81,0.00,,,0.05,Wunderground v.1.15,2013-02-14 01:15:00,
2013-02-13 19:25:00,39.0,34.3,29.88,SE,136,0.0,14.0,83,0.00,,,0.05,Wunderground v.1.15,2013-02-14 01:25:00,
2013-02-13 19:34:00,38.9,34.2,29.88,ESE,117,0.0,14.0,83,0.00,,,0.05,Wunderground v.1.15,2013-02-14 01:34:00,
2013-02-13 19:45:00,38.5,33.8,29.89,SE,134,0.0,14.0,83,0.00,,,0.05,Wunderground v.1.15,2013-02-14 01:45:00,
2013-02-13 19:55:00,38.0,33.6,29.89,ESE,110,0.0,14.0,84,0.00,,,0.05,Wunderground v.1.15,2013-02-14 01:55:00,
2013-02-13 20:05:00,37.6,33.5,29.88,East,98,0.0,14.0,85,0.00,,,0.05,Wunderground v.1.15,2013-02-14 02:05:00,
2013-02-13 20:15:00,37.6,33.5,29.88,ESE,113,0.0,14.0,85,0.00,,,0.05,Wunderground v.1.15,2013-02-14 02:15:00,
2013-02-13 20:25:00,37.7,33.6,29.88,SE,145,0.0,14.0,85,0.00,,,0.05,Wunderground v.1.15,2013-02-14 02:25:00,
2013-02-13 20:35:00,37.9,33.8,29.88,ESE,106,0.0,14.0,85,0.00,,,0.05,Wunderground v.1.15,2013-02-14 02:35:00,
2013-02-13 20:44:00,38.2,33.8,29.88,SSW,207,0.0,14.0,84,0.00,,,0.05,Wunderground v.1.15,2013-02-14 02:44:00,
2013-02-13 20:55:00,38.2,33.5,29.88,East,99,0.0,14.0,83,0.00,,,0.05,Wunderground v.1.15,2013-02-14 02:55:00,
2013-02-13 21:05:00,37.9,33.5,29.88,ESE,108,0.0,14.0,84,0.00,,,0.05,Wunderground v.1.15,2013-02-14 03:05:00,
2013-02-13 21:15:00,38.1,33.7,29.88,ESE,105,0.0,14.0,84,0.00,,,0.05,Wunderground v.1.15,2013-02-14 03:15:00,
2013-02-13 21:24:00,38.5,33.8,29.88,ESE,110,0.0,14.0,83,0.00,,,0.05,Wunderground v.1.15,2013-02-14 03:24:00,
2013-02-13 21:35:00,38.4,33.7,29.88,ESE,110,0.0,14.0,83,0.00,,,0.05,Wunderground v.1.15,2013-02-14 03:35:00,
2013-02-13 21:45:00,38.2,33.5,29.88,SE,132,0.0,14.0,83,0.00,,,0.05,Wunderground v.1.15,2013-02-14 03:45:00,
2013-02-13 21:55:00,38.3,33.6,29.88,SE,134,0.0,14.0,83,0.00,,,0.05,Wunderground v.1.15,2013-02-14 03:55:00,
2013-02-13 22:04:00,38.6,33.6,29.88,ESE,112,1.0,14.0,82,0.00,,,0.05,Wunderground v.1.15,2013-02-14 04:04:00,
2013-02-13 22:15:00,38.7,33.7,29.88,SE,139,0.0,14.0,82,0.00,,,0.05,Wunderground v.1.15,2013-02-14 04:15:00,
2013-02-13 22:20:00,38.9,33.6,29.88,ESE,105,1.0,14.0,81,0.00,,,0.05,Wunderground v.1.15,2013-02-14 04:20:00,
2013-02-13 22:30:00,39.5,33.8,29.88,SSW,200,1.0,1.0,80,0.00,,,0.05,Wunderground v.1.15,2013-02-14 04:30:00,
2013-02-13 22:40:00,39.7,33.7,29.88,South,169,1.0,1.0,79,0.00,,,0.05,Wunderground v.1.15,2013-02-14 04:40:00,
2013-02-13 22:50:00,39.5,33.5,29.88,SE,135,0.0,14.0,79,0.00,,,0.05,Wunderground v.1.15,2013-02-14 04:50:00,
2013-02-13 23:00:00,39.4,33.4,29.88,SSE,150,0.0,14.0,79,0.00,,,0.05,Wunderground v.1.15,2013-02-14 05:00:00,
2013-02-13 23:05:00,39.4,33.4,29.88,East,89,0.0,14.0,79,0.00,,,0.05,Wunderground v.1.15,2013-02-14 05:05:00,
2013-02-13 23:10:00,39.6,33.6,29.88,WSW,258,1.0,1.0,79,0.00,,,0.05,Wunderground v.1.15,2013-02-14 05:10:00,
2013-02-13 23:20:00,39.6,33.6,29.88,SW,228,0.0,14.0,79,0.00,,,0.05,Wunderground v.1.15,2013-02-14 05:20:00,
2013-02-13 23:29:00,39.6,33.3,29.88,SE,135,1.0,14.0,78,0.00,,,0.05,Wunderground v.1.15,2013-02-14 05:29:00,
2013-02-13 23:39:00,39.9,33.6,29.88,ESE,120,1.0,14.0,78,0.00,,,0.05,Wunderground v.1.15,2013-02-14 05:39:00,
2013-02-13 23:45:00,40.1,33.5,29.88,SE,139,1.0,14.0,77,0.00,,,0.05,Wunderground v.1.15,2013-02-14 05:45:00,
2013-02-13 23:55:00,40.4,33.4,29.88,SE,139,1.0,14.0,76,0.00,,,0.05,Wunderground v.1.15,2013-02-14 05:55:00,